Okoboji, Iowa
Current Conditions -  °F | °C
As of 6:53 AM on Sunday 23 Nov 2014 (Local Time) from KSPW Reporting Station
Haze Haze  
Wind Chill: 50°   Ceiling: 600
Heat Index: 50°   Visibility: 5mi
Dew Point: 48°   Wind: 7mph
Humidity: 93%   Direction: 210°SSW
Pressure: 29.45"   Gusts: NA
Location:  43.39°N, 95.15°W
Report Text: KSPW 231253Z AUTO 21006KT 5SM BR OVC006 10/09 A2945 RMK AO2 SLP979 T01000089 TSNO
Loading
Personal Weather Stations






























Interactive Weather Map New forecast layout! Learn more

10-Day Weather Forecast

Advertisements
Track Severe Weather on mobile